Time;durP1;ratioP1;P1;durP2;ratioP2;P2;SDS_P1;SDS_P2;PMS_P1;PMS_P2;Temp;Humidity;BMP_temperature;BMP_pressure;BME280_temperature;BME280_humidity;BME280_pressure;Samples;Min_cycle;Max_cycle;Signal;HPM_P1;HPM_P2
2022/07/15 00:00:39;;;;;;;2.67;1.08;;;;;;;19.28;40.62;93779.81;4993097;28;20684;-79
2022/07/15 00:03:04;;;;;;;1.58;1.00;;;;;;;20.51;40.39;93979.34;4994954;28;20027;-81
2022/07/15 00:05:30;;;;;;;1.80;1.20;;;;;;;20.42;40.61;93976.94;4996778;28;20049;-81
2022/07/15 00:07:58;;;;;;;2.20;1.17;;;;;;;20.32;40.83;93976.84;4997022;28;20111;-84
2022/07/15 00:10:23;;;;;;;1.20;1.10;;;;;;;20.14;41.62;93971.22;4995764;28;20609;-83
2022/07/15 00:12:50;;;;;;;1.77;1.02;;;;;;;20.15;41.56;93984.34;4990998;28;20018;-82
2022/07/15 00:15:18;;;;;;;2.80;1.10;;;;;;;19.89;41.61;93937.78;4993351;28;20026;-81
2022/07/15 00:17:43;;;;;;;1.38;1.15;;;;;;;19.62;41.98;93920.88;4997973;28;20117;-81
2022/07/15 00:20:11;;;;;;;1.25;1.20;;;;;;;20.02;42.13;93974.16;4994567;28;20966;-80
2022/07/15 00:22:38;;;;;;;4.35;1.20;;;;;;;20.11;41.81;93977.34;5001028;28;20032;-80
2022/07/15 00:25:04;;;;;;;3.50;1.20;;;;;;;20.12;41.47;93978.91;4995782;28;20513;-80
2022/07/15 00:27:29;;;;;;;1.20;1.10;;;;;;;19.83;40.89;93928.44;4994273;28;20487;-83
2022/07/15 00:29:55;;;;;;;1.42;1.00;;;;;;;19.89;40.81;93949.34;4994433;28;20026;-82
2022/07/15 00:32:20;;;;;;;4.50;1.00;;;;;;;19.95;41.19;93957.88;4989647;28;20027;-82
2022/07/15 00:34:46;;;;;;;1.73;1.10;;;;;;;19.93;41.40;93968.28;4991237;28;20040;-84
2022/07/15 00:37:12;;;;;;;1.35;1.20;;;;;;;20.04;41.31;93982.69;4991296;28;20056;-81
2022/07/15 00:39:37;;;;;;;2.63;1.05;;;;;;;19.93;41.24;93963.66;4992435;28;20445;-83
2022/07/15 00:42:03;;;;;;;1.52;1.20;;;;;;;20.03;41.38;93975.72;4985947;28;20030;-80
2022/07/15 00:44:28;;;;;;;1.15;1.02;;;;;;;19.79;41.34;93938.44;4992279;28;20501;-82
2022/07/15 00:46:54;;;;;;;1.90;1.17;;;;;;;19.97;41.01;93969.88;4989687;28;20048;-80
2022/07/15 00:49:20;;;;;;;1.45;0.98;;;;;;;19.73;40.90;93930.66;4992625;28;20512;-82
2022/07/15 00:51:54;;;;;;;1.65;1.00;;;;;;;19.84;41.28;93941.56;4990470;28;20038;-83
2022/07/15 00:54:25;;;;;;;3.42;1.20;;;;;;;19.99;40.91;93964.13;4989978;28;20100;-82
2022/07/15 00:56:56;;;;;;;1.38;1.00;;;;;;;19.96;41.02;93959.44;4989969;28;20394;-83
2022/07/15 00:59:24;;;;;;;0.90;0.90;;;;;;;19.93;40.80;93954.78;4986242;28;20038;-82
2022/07/15 01:01:52;;;;;;;1.20;1.10;;;;;;;19.83;40.82;93952.72;5003522;28;20029;-83
2022/07/15 01:04:22;;;;;;;0.90;0.90;;;;;;;19.82;41.00;93951.16;4991865;28;20505;-83
2022/07/15 01:06:47;;;;;;;1.15;1.02;;;;;;;19.66;41.08;93935.94;4990551;28;20113;-83
2022/07/15 01:09:13;;;;;;;2.28;1.30;;;;;;;19.43;41.12;93899.41;4990033;28;20058;-83
2022/07/15 01:11:38;;;;;;;1.45;1.13;;;;;;;19.71;41.04;93940.25;4989215;28;20623;-82
2022/07/15 01:14:05;;;;;;;1.98;1.15;;;;;;;19.50;40.89;93910.31;4990796;28;20053;-82
2022/07/15 01:16:30;;;;;;;1.02;0.98;;;;;;;19.58;41.30;93923.53;4990417;28;20129;-83
2022/07/15 01:18:56;;;;;;;1.10;1.00;;;;;;;19.30;41.50;93917.75;4988568;28;20021;-82
2022/07/15 01:21:22;;;;;;;1.88;1.00;;;;;;;19.38;41.79;93946.34;4991301;28;20052;-83
2022/07/15 01:23:48;;;;;;;0.93;0.90;;;;;;;19.25;41.82;93932.34;5007370;28;20518;-80
2022/07/15 01:26:14;;;;;;;1.67;1.20;;;;;;;19.12;42.24;93935.59;4990631;28;20025;-80
2022/07/15 01:28:42;;;;;;;3.13;1.67;;;;;;;19.22;42.36;93948.44;4994102;28;20018;-80
2022/07/15 01:31:08;;;;;;;1.40;1.30;;;;;;;19.10;42.29;93919.00;4992727;28;20057;-80
2022/07/15 01:33:34;;;;;;;6.68;2.33;;;;;;;19.13;42.12;93913.66;4992174;28;20022;-80
2022/07/15 01:36:00;;;;;;;3.40;2.38;;;;;;;19.39;41.91;93939.81;4993903;28;20095;-79
2022/07/15 01:38:27;;;;;;;5.38;2.55;;;;;;;19.43;41.90;93937.94;4990959;28;20581;-79
2022/07/15 01:40:52;;;;;;;4.65;3.55;;;;;;;19.26;42.23;93922.31;4992475;28;20026;-80
2022/07/15 01:43:18;;;;;;;6.20;2.80;;;;;;;19.08;41.87;93891.63;4991648;28;20478;-80
2022/07/15 01:45:44;;;;;;;3.97;3.05;;;;;;;19.15;41.75;93906.00;4992122;28;20036;-80
2022/07/15 01:49:21;;;;;;;3.10;2.22;;;;;;;19.35;41.45;93941.69;4991843;28;20124;-80
2022/07/15 01:50:58;;;;;;;2.65;1.98;;;;;;;19.40;41.91;93932.50;4992768;28;20029;-80
2022/07/15 01:53:24;;;;;;;3.75;2.33;;;;;;;19.09;41.91;93910.16;4993240;28;20081;-80
2022/07/15 01:55:50;;;;;;;4.93;3.28;;;;;;;18.89;42.43;93904.09;5006668;28;20156;-80
2022/07/15 01:58:16;;;;;;;4.32;1.90;;;;;;;18.95;42.78;93947.69;4992003;28;20429;-80
2022/07/15 02:00:41;;;;;;;1.48;1.38;;;;;;;18.81;42.93;93920.53;4995709;28;20022;-80
2022/07/15 02:03:07;;;;;;;3.97;1.70;;;;;;;18.92;42.94;93942.25;4995313;28;20019;-80
2022/07/15 02:05:33;;;;;;;2.13;1.92;;;;;;;18.92;43.17;93944.94;4997503;28;20049;-79
2022/07/15 02:07:59;;;;;;;5.47;2.90;;;;;;;18.83;43.11;93924.38;4995704;28;20525;-80
2022/07/15 02:10:24;;;;;;;2.90;1.73;;;;;;;18.88;43.37;93945.63;4998144;28;20053;-79
2022/07/15 02:12:50;;;;;;;3.28;1.52;;;;;;;18.88;43.28;93944.84;4993489;28;20036;-80
2022/07/15 02:15:15;;;;;;;2.10;1.30;;;;;;;18.67;42.97;93910.28;4993841;28;20492;-80
2022/07/15 02:17:41;;;;;;;3.50;1.60;;;;;;;18.89;43.22;93941.81;4998542;28;20445;-79
2022/07/15 02:20:07;;;;;;;3.45;1.58;;;;;;;18.68;43.96;93927.19;4995857;28;20029;-80
2022/07/15 02:22:32;;;;;;;3.58;2.03;;;;;;;18.64;44.11;93951.38;4990768;28;20618;-80
2022/07/15 02:24:58;;;;;;;2.47;1.75;;;;;;;18.66;43.94;93954.50;4993987;28;20030;-80
2022/07/15 02:27:23;;;;;;;2.08;1.27;;;;;;;18.63;44.16;93947.13;4992372;28;20026;-79
2022/07/15 02:29:48;;;;;;;2.33;1.30;;;;;;;18.27;44.18;93910.00;4993152;28;20022;-80
2022/07/15 02:32:14;;;;;;;3.92;1.80;;;;;;;18.59;44.11;93948.22;4993435;28;20026;-79
2022/07/15 02:34:40;;;;;;;2.15;1.50;;;;;;;18.65;44.08;93950.25;4994573;28;20030;-80
2022/07/15 02:37:05;;;;;;;4.07;2.17;;;;;;;18.29;44.04;93899.63;4992737;28;20061;-79
2022/07/15 02:39:31;;;;;;;2.53;1.83;;;;;;;18.22;44.17;93886.84;4993267;28;20053;-80
2022/07/15 02:41:56;;;;;;;3.00;1.60;;;;;;;18.48;43.87;93926.47;4993564;28;20072;-79
2022/07/15 02:44:21;;;;;;;3.03;1.63;;;;;;;18.54;44.14;93929.66;4993153;28;20060;-80
2022/07/15 02:46:47;;;;;;;1.27;1.13;;;;;;;18.46;44.09;93918.00;5006718;28;20458;-80
2022/07/15 02:49:12;;;;;;;4.82;1.88;;;;;;;18.66;43.75;93946.44;5006289;28;20509;-79
2022/07/15 02:51:38;;;;;;;4.05;2.33;;;;;;;18.62;43.86;93945.59;4993141;28;20030;-79
2022/07/15 02:54:03;;;;;;;5.15;2.50;;;;;;;18.45;43.77;93921.81;4995783;28;20386;-80
2022/07/15 02:56:28;;;;;;;5.50;3.80;;;;;;;18.60;44.09;93942.47;5008842;28;20390;-80
2022/07/15 02:58:54;;;;;;;5.88;3.22;;;;;;;18.42;43.84;93912.56;4994782;28;20032;-79
2022/07/15 03:01:19;;;;;;;6.32;3.40;;;;;;;18.46;43.61;93907.22;4996249;28;20837;-81
2022/07/15 03:03:45;;;;;;;7.28;3.30;;;;;;;18.48;43.64;93913.03;4999726;28;20034;-80
2022/07/15 03:06:10;;;;;;;6.32;2.65;;;;;;;18.46;44.03;93913.41;5000477;28;20054;-80
2022/07/15 03:08:36;;;;;;;8.82;2.83;;;;;;;18.42;44.09;93911.78;4998033;28;20046;-80
2022/07/15 03:11:01;;;;;;;3.78;2.40;;;;;;;18.60;43.95;93926.31;4995182;28;20559;-80
2022/07/15 03:13:26;;;;;;;3.22;2.55;;;;;;;18.61;43.83;93929.78;4995954;28;20037;-80
2022/07/15 03:15:52;;;;;;;3.20;2.42;;;;;;;18.29;44.43;93900.41;4992674;28;20525;-81
2022/07/15 03:18:18;;;;;;;2.90;1.60;;;;;;;18.44;44.50;93933.72;4996237;28;20498;-82
2022/07/15 03:20:45;;;;;;;3.38;1.50;;;;;;;18.38;44.82;93927.88;4990216;28;20478;-82
2022/07/15 03:23:11;;;;;;;2.72;1.55;;;;;;;18.28;44.83;93935.78;4990831;28;20554;-81
2022/07/15 03:25:36;;;;;;;4.25;1.70;;;;;;;18.29;45.12;93926.53;4988608;28;20232;-82
2022/07/15 03:28:02;;;;;;;3.33;1.88;;;;;;;18.32;45.35;93933.91;4995141;28;20022;-81
2022/07/15 03:30:28;;;;;;;3.28;1.88;;;;;;;18.40;45.50;93924.81;4995180;28;20033;-80
2022/07/15 03:32:54;;;;;;;6.82;2.58;;;;;;;18.20;45.54;93902.56;5012654;28;20030;-80
2022/07/15 03:35:19;;;;;;;3.22;2.40;;;;;;;18.41;45.67;93923.69;5002919;28;20036;-80
2022/07/15 03:37:45;;;;;;;3.67;2.40;;;;;;;18.25;45.76;93904.97;5010931;28;20482;-80
2022/07/15 03:40:12;;;;;;;5.75;2.38;;;;;;;18.55;45.79;93932.00;4997469;28;20026;-80
2022/07/15 03:42:37;;;;;;;6.18;2.78;;;;;;;18.43;45.73;93906.03;4995472;28;20096;-80
2022/07/15 03:45:03;;;;;;;5.90;2.97;;;;;;;18.41;45.64;93902.16;4995545;28;20026;-80
2022/07/15 03:47:29;;;;;;;4.63;2.75;;;;;;;18.57;46.15;93918.97;5008766;28;20435;-80
2022/07/15 03:49:54;;;;;;;3.80;2.40;;;;;;;18.57;46.14;93918.97;4995007;28;20115;-80
2022/07/15 03:52:20;;;;;;;5.40;2.80;;;;;;;18.74;46.03;93928.47;4994356;28;20478;-79
2022/07/15 03:54:45;;;;;;;5.07;3.15;;;;;;;18.77;45.99;93933.16;4993990;28;20029;-79
2022/07/15 03:57:11;;;;;;;8.68;4.88;;;;;;;18.74;45.59;93941.94;4994056;28;20755;-80
2022/07/15 03:59:36;;;;;;;6.07;3.42;;;;;;;18.75;45.17;93930.03;4992255;28;20128;-81
2022/07/15 04:02:01;;;;;;;7.70;4.88;;;;;;;18.74;44.88;93928.47;5004592;28;20536;-81
2022/07/15 04:04:27;;;;;;;10.20;6.07;;;;;;;18.45;45.16;93917.22;5000591;28;20030;-80
2022/07/15 04:06:52;;;;;;;9.40;4.60;;;;;;;18.66;45.13;93935.66;4995927;28;20087;-80
2022/07/15 04:09:17;;;;;;;9.98;5.43;;;;;;;18.64;45.35;93920.97;4994215;28;20474;-79
2022/07/15 04:11:43;;;;;;;10.38;5.05;;;;;;;18.46;45.65;93918.00;4994318;28;20037;-80
2022/07/15 04:14:13;;;;;;;8.40;4.53;;;;;;;18.70;45.91;93949.97;4993879;28;20127;-80
2022/07/15 04:16:38;;;;;;;10.10;5.18;;;;;;;18.85;45.83;93951.75;4990409;28;20478;-82
2022/07/15 04:19:04;;;;;;;7.38;3.47;;;;;;;18.68;45.19;93909.13;4989470;28;20045;-81
2022/07/15 04:21:30;;;;;;;8.10;4.57;;;;;;;18.92;45.56;93942.25;4989408;28;20026;-82
2022/07/15 04:23:55;;;;;;;11.90;5.30;;;;;;;19.05;45.05;93947.06;4989973;28;20117;-82
2022/07/15 04:26:20;;;;;;;6.75;4.57;;;;;;;18.98;45.08;93932.69;4989204;28;20160;-82
2022/07/15 04:28:46;;;;;;;9.73;4.30;;;;;;;18.87;45.66;93944.06;4989726;28;20104;-82
2022/07/15 04:31:12;;;;;;;6.80;4.15;;;;;;;18.76;45.73;93920.81;4989463;28;20030;-81
2022/07/15 04:33:37;;;;;;;7.90;4.53;;;;;;;18.61;46.11;93914.41;4989725;28;20382;-81
2022/07/15 04:36:03;;;;;;;8.80;4.65;;;;;;;18.69;46.02;93899.91;4990047;28;20430;-81
2022/07/15 04:38:28;;;;;;;6.38;3.80;;;;;;;18.92;45.95;93915.28;4992182;28;20036;-82
2022/07/15 04:40:54;;;;;;;6.28;4.38;;;;;;;19.26;45.60;93947.34;4993372;28;20026;-82
2022/07/15 04:43:19;;;;;;;5.18;4.00;;;;;;;18.63;45.96;93904.03;4992896;28;20103;-82
2022/07/15 04:45:45;;;;;;;6.22;4.38;;;;;;;19.15;45.81;93951.03;4994792;28;20025;-80
2022/07/15 04:50:57;;;;;;;6.47;4.00;;;;;;;19.35;44.81;93917.44;4994419;28;20076;-82
2022/07/15 04:53:23;;;;;;;7.70;4.15;;;;;;;19.65;44.46;93950.59;4993681;28;20022;-82
2022/07/15 04:55:48;;;;;;;11.95;3.92;;;;;;;19.56;44.87;93938.50;4993806;28;20017;-82
2022/07/15 04:58:14;;;;;;;8.98;4.45;;;;;;;19.69;44.68;93948.72;4991705;28;20034;-81
2022/07/15 05:00:43;;;;;;;6.63;4.18;;;;;;;19.73;44.61;93940.66;4993857;28;20977;-83
2022/07/15 05:03:09;;;;;;;8.93;4.35;;;;;;;19.94;44.98;93954.41;4993809;28;20014;-82
2022/07/15 05:05:35;;;;;;;9.45;5.20;;;;;;;19.71;44.00;93938.31;4990382;28;20958;-82
2022/07/15 05:08:00;;;;;;;4.38;3.30;;;;;;;19.48;44.11;93950.38;4993878;28;20091;-83
2022/07/15 05:10:25;;;;;;;7.85;3.50;;;;;;;19.25;44.76;93953.13;4994022;28;20057;-82
2022/07/15 05:12:51;;;;;;;7.10;3.00;;;;;;;19.62;44.22;93954.03;4994438;28;20824;-83
2022/07/15 05:15:16;;;;;;;4.50;2.92;;;;;;;19.80;43.66;93945.38;4992184;28;20038;-83
2022/07/15 05:17:42;;;;;;;8.63;2.92;;;;;;;20.07;42.94;93957.63;4991525;28;20041;-83
2022/07/15 05:20:07;;;;;;;4.78;3.03;;;;;;;20.14;42.23;93949.63;5007631;28;20068;-82
2022/07/15 05:22:33;;;;;;;6.07;2.92;;;;;;;20.10;42.94;93911.75;4994904;28;20088;-80
2022/07/15 05:24:58;;;;;;;4.15;3.20;;;;;;;20.51;43.20;93958.50;4997329;28;20025;-79
2022/07/15 05:27:24;;;;;;;4.72;2.30;;;;;;;20.73;42.43;93945.19;4993517;28;20478;-80
2022/07/15 05:29:49;;;;;;;11.73;2.70;;;;;;;20.81;41.69;93941.38;4993930;28;20026;-82
2022/07/15 05:32:15;;;;;;;6.40;3.85;;;;;;;20.82;41.88;93914.00;4990411;28;20537;-80
2022/07/15 05:34:41;;;;;;;6.50;3.25;;;;;;;20.96;41.28;93918.75;4991358;28;20034;-83
2022/07/15 05:37:06;;;;;;;3.03;2.50;;;;;;;21.09;42.00;93940.84;4989640;28;20403;-82
2022/07/15 05:39:32;;;;;;;4.35;2.50;;;;;;;20.82;41.28;93940.25;4993211;28;20116;-82
2022/07/15 05:41:58;;;;;;;4.25;2.78;;;;;;;21.20;41.58;93947.88;4992440;28;20668;-82
2022/07/15 05:44:24;;;;;;;3.63;2.10;;;;;;;21.08;40.93;93926.53;4991622;28;20664;-82
2022/07/15 05:46:50;;;;;;;3.08;2.60;;;;;;;21.06;40.74;93934.25;5005862;28;20037;-82
2022/07/15 05:49:16;;;;;;;5.85;2.38;;;;;;;20.35;40.80;93893.13;4990797;28;20429;-81
2022/07/15 05:51:41;;;;;;;5.53;2.90;;;;;;;20.60;42.08;93942.75;4991969;28;20022;-80
2022/07/15 05:54:06;;;;;;;6.72;2.53;;;;;;;20.80;41.68;93947.94;5012114;28;20092;-82
2022/07/15 05:56:32;;;;;;;5.15;2.53;;;;;;;20.82;42.14;93922.09;4995785;28;20207;-83
2022/07/15 05:58:58;;;;;;;5.18;2.70;;;;;;;21.01;41.57;93918.41;5000665;28;20156;-82
2022/07/15 06:01:23;;;;;;;5.53;3.20;;;;;;;20.65;41.49;93930.81;4996523;28;20901;-83
2022/07/15 06:03:49;;;;;;;5.32;2.63;;;;;;;20.31;42.16;93943.66;4987586;28;20536;-81
2022/07/15 06:06:16;;;;;;;6.28;2.50;;;;;;;20.76;41.76;93915.47;4986061;28;20084;-82
2022/07/15 06:08:42;;;;;;;2.70;1.88;;;;;;;20.91;41.54;93895.53;4987381;28;20061;-83
2022/07/15 06:11:08;;;;;;;6.55;2.55;;;;;;;21.35;41.19;93922.47;4988068;28;20118;-82
2022/07/15 06:13:34;;;;;;;28.25;3.75;;;;;;;21.46;40.17;93906.28;4990673;28;20384;-79
2022/07/15 06:15:59;;;;;;;4.50;2.25;;;;;;;21.82;39.82;93947.84;4988540;28;20203;-80
2022/07/15 06:18:25;;;;;;;3.95;2.42;;;;;;;21.64;40.37;93909.88;4991697;28;20880;-80
2022/07/15 06:20:51;;;;;;;6.03;2.17;;;;;;;20.95;40.52;93923.38;4992127;28;20021;-80
2022/07/15 06:23:17;;;;;;;3.20;2.80;;;;;;;21.20;40.75;93956.00;5005580;28;20026;-80
2022/07/15 06:25:42;;;;;;;4.43;2.63;;;;;;;21.25;40.96;93952.94;4997294;28;20045;-80
2022/07/15 06:28:08;;;;;;;2.58;2.00;;;;;;;21.38;39.58;93950.69;4996441;28;20102;-81
2022/07/15 06:30:33;;;;;;;3.42;2.22;;;;;;;21.18;40.97;93952.88;4998059;28;20063;-80
2022/07/15 06:32:58;;;;;;;2.55;2.20;;;;;;;21.31;40.61;93956.84;5001416;28;20434;-80
2022/07/15 06:35:24;;;;;;;2.92;1.90;;;;;;;20.87;41.22;93942.63;4994365;28;20026;-80
2022/07/15 06:37:50;;;;;;;7.28;2.38;;;;;;;20.92;40.40;93939.56;4991517;28;20057;-81
2022/07/15 06:40:16;;;;;;;4.00;2.22;;;;;;;20.84;41.49;93951.44;4991223;28;20414;-80
2022/07/15 06:42:41;;;;;;;2.30;2.00;;;;;;;20.90;40.98;93926.44;4996250;28;20426;-80
2022/07/15 06:45:07;;;;;;;4.32;2.47;;;;;;;20.92;40.57;93915.25;4993140;28;20033;-80
2022/07/15 06:47:33;;;;;;;4.90;2.30;;;;;;;21.37;40.27;93938.31;4991942;28;20042;-80
2022/07/15 06:50:00;;;;;;;2.85;2.03;;;;;;;21.88;40.39;93946.31;4986350;28;20026;-80
2022/07/15 06:52:25;;;;;;;2.28;1.90;;;;;;;21.71;40.11;93906.41;4994582;28;20576;-80
2022/07/15 06:54:51;;;;;;;2.67;2.30;;;;;;;22.22;39.57;93946.84;4987995;28;20026;-80
2022/07/15 06:57:16;;;;;;;4.80;2.30;;;;;;;21.86;38.93;93926.97;4989636;28;20076;-80
2022/07/15 06:59:43;;;;;;;4.68;1.80;;;;;;;22.32;39.44;93926.34;4986219;28;20023;-80
2022/07/15 07:02:08;;;;;;;3.33;2.30;;;;;;;22.73;38.76;93946.53;4992794;28;20021;-81
2022/07/15 07:04:34;;;;;;;2.90;2.40;;;;;;;22.51;39.42;93924.06;4993342;28;20026;-80
2022/07/15 07:07:00;;;;;;;3.17;2.38;;;;;;;22.45;38.70;93939.13;4980952;28;20026;-80
2022/07/15 07:09:25;;;;;;;6.13;1.95;;;;;;;22.57;39.25;93933.34;5003956;28;20116;-79
2022/07/15 07:11:50;;;;;;;2.90;1.83;;;;;;;22.91;38.54;93924.88;4987716;28;20116;-81
2022/07/15 07:14:16;;;;;;;2.63;1.75;;;;;;;23.17;37.98;93926.41;4984024;28;20026;-80
2022/07/15 07:16:41;;;;;;;5.80;2.22;;;;;;;23.42;37.66;93935.25;4989166;28;20822;-80
2022/07/15 07:19:06;;;;;;;3.70;1.90;;;;;;;23.28;37.75;93922.47;4988610;28;20035;-80
2022/07/15 07:21:32;;;;;;;7.53;2.35;;;;;;;23.39;39.51;93946.91;4989142;28;20037;-81
2022/07/15 07:23:58;;;;;;;2.75;1.88;;;;;;;23.46;38.26;93917.81;4990279;28;20108;-82
2022/07/15 07:26:24;;;;;;;4.13;2.08;;;;;;;23.49;37.81;93927.91;4985207;28;20450;-82
2022/07/15 07:28:49;;;;;;;7.47;2.35;;;;;;;23.38;38.28;93877.50;4984914;28;20033;-82
2022/07/15 07:31:15;;;;;;;2.60;2.30;;;;;;;23.39;37.79;93933.31;4985932;28;20096;-82
2022/07/15 07:33:41;;;;;;;2.88;2.13;;;;;;;23.67;38.52;93927.84;4989460;28;20029;-81
2022/07/15 07:36:08;;;;;;;5.00;1.92;;;;;;;23.64;38.46;93915.06;4986972;28;20133;-82
2022/07/15 07:38:34;;;;;;;2.80;1.60;;;;;;;23.91;38.18;93926.19;4986906;28;20033;-81
2022/07/15 07:41:00;;;;;;;2.13;1.90;;;;;;;23.75;36.92;93929.38;4984216;28;20445;-82
2022/07/15 07:43:27;;;;;;;2.88;1.75;;;;;;;23.81;36.66;93933.22;4981382;28;20087;-81
2022/07/15 07:45:53;;;;;;;3.65;2.40;;;;;;;23.93;36.31;93935.50;4985408;28;20037;-80
2022/07/15 07:48:19;;;;;;;4.13;2.03;;;;;;;23.82;38.48;93923.13;4984107;28;20437;-81
2022/07/15 07:50:46;;;;;;;5.43;2.65;;;;;;;23.23;38.03;93947.31;4990782;28;20523;-79
2022/07/15 07:53:11;;;;;;;3.50;1.80;;;;;;;23.24;37.96;93937.22;4994682;28;20399;-79
2022/07/15 07:55:38;;;;;;;3.03;1.77;;;;;;;22.96;37.78;93905.50;4997275;28;20056;-79
2022/07/15 07:58:05;;;;;;;2.97;1.92;;;;;;;22.82;37.47;93921.75;4995727;28;20025;-80
2022/07/15 08:00:31;;;;;;;2.55;2.03;;;;;;;22.66;38.05;93859.78;4994586;28;20127;-80
2022/07/15 08:02:59;;;;;;;4.07;1.80;;;;;;;23.20;37.25;93914.75;4995453;28;20029;-80
2022/07/15 08:05:25;;;;;;;4.43;1.83;;;;;;;23.46;37.16;93917.03;4990983;28;20033;-79
2022/07/15 08:08:04;;;;;;;5.28;2.28;;;;;;;23.84;36.68;93921.56;4988996;28;20164;-79
2022/07/15 08:10:30;;;;;;;4.25;2.40;;;;;;;23.94;35.97;93915.31;4986442;28;20689;-79
2022/07/15 08:12:56;;;;;;;5.05;1.88;;;;;;;23.98;34.47;93905.22;4986498;28;20026;-82
2022/07/15 08:15:21;;;;;;;3.60;1.90;;;;;;;24.11;35.12;93904.75;4992177;28;20045;-82
2022/07/15 08:17:47;;;;;;;2.65;1.70;;;;;;;24.00;35.56;93919.16;4989100;28;20362;-82
2022/07/15 08:20:13;;;;;;;3.45;1.88;;;;;;;24.18;36.05;93899.31;4991932;28;20089;-82
2022/07/15 08:22:38;;;;;;;5.38;1.80;;;;;;;24.18;36.04;93891.16;4989965;28;20034;-81
2022/07/15 08:25:04;;;;;;;2.50;1.70;;;;;;;24.17;35.79;93900.47;4988474;28;20504;-81
2022/07/15 08:27:30;;;;;;;1.73;1.45;;;;;;;24.13;34.99;93921.47;4991386;28;20026;-81
2022/07/15 08:29:55;;;;;;;1.95;1.50;;;;;;;24.34;34.67;93910.50;4992046;28;20668;-82
2022/07/15 08:32:21;;;;;;;3.45;1.70;;;;;;;24.46;34.40;93917.38;4988559;28;20022;-81
2022/07/15 08:34:47;;;;;;;1.92;1.50;;;;;;;24.46;34.22;93922.81;4990645;28;20034;-81
2022/07/15 08:37:13;;;;;;;3.40;1.83;;;;;;;24.46;34.42;93917.38;4989860;28;20034;-82
2022/07/15 08:39:38;;;;;;;1.83;1.65;;;;;;;24.13;34.04;93910.59;5004062;28;20095;-82
2022/07/15 08:42:04;;;;;;;3.25;1.45;;;;;;;24.31;34.69;93906.59;4989223;28;20319;-82
2022/07/15 08:44:31;;;;;;;3.78;1.70;;;;;;;23.75;33.75;93853.34;4984491;28;20025;-80
2022/07/15 08:47:02;;;;;;;2.13;1.65;;;;;;;24.12;34.20;93901.69;4989347;28;20050;-80
2022/07/15 08:49:31;;;;;;;2.15;1.30;;;;;;;24.25;33.58;93888.38;4991575;28;20029;-79
2022/07/15 08:51:59;;;;;;;1.83;1.13;;;;;;;24.35;32.38;93893.75;4988357;28;20125;-80
2022/07/15 08:54:29;;;;;;;1.58;1.25;;;;;;;24.29;33.25;93908.19;4998947;28;20144;-81
2022/07/15 08:56:55;;;;;;;2.67;1.50;;;;;;;23.95;33.54;93891.66;4997461;28;20416;-80
2022/07/15 08:59:21;;;;;;;1.83;1.65;;;;;;;24.20;32.85;93905.13;4998011;28;20371;-79
2022/07/15 09:01:48;;;;;;;1.70;1.45;;;;;;;23.84;34.34;93889.00;4990618;28;20040;-80
2022/07/15 09:04:15;;;;;;;5.82;1.45;;;;;;;24.32;32.33;93910.09;4991446;28;20717;-79
2022/07/15 09:06:46;;;;;;;3.00;1.45;;;;;;;24.33;32.83;93898.84;4990756;28;20064;-80
2022/07/15 09:09:17;;;;;;;4.43;1.75;;;;;;;24.52;33.09;93905.69;4991947;28;20502;-79
2022/07/15 09:11:43;;;;;;;2.50;1.40;;;;;;;24.43;32.73;93884.41;4992204;28;20030;-81
2022/07/15 09:14:13;;;;;;;1.63;1.52;;;;;;;24.71;32.23;93901.66;4993062;28;20021;-79
2022/07/15 09:16:38;;;;;;;2.15;1.40;;;;;;;24.70;32.65;93900.88;4989982;28;20026;-79
2022/07/15 09:19:04;;;;;;;3.30;1.98;;;;;;;24.58;32.89;93876.91;4993215;28;20644;-80
2022/07/15 09:21:29;;;;;;;4.47;2.08;;;;;;;24.78;32.44;93872.47;4995781;28;20239;-80
2022/07/15 09:23:55;;;;;;;2.33;1.60;;;;;;;24.88;33.03;93879.03;4994411;28;20057;-80
2022/07/15 09:26:25;;;;;;;2.45;1.73;;;;;;;24.91;33.96;93877.44;4993633;28;20026;-82
2022/07/15 09:28:52;;;;;;;5.22;2.17;;;;;;;25.11;34.67;93898.25;4984647;28;20218;-82
2022/07/15 09:34:24;;;;;;;2.38;1.92;;;;;;;24.66;36.35;93845.75;4986834;28;20488;-81
2022/07/15 09:36:54;;;;;;;2.80;1.60;;;;;;;24.97;35.29;93898.38;4983074;28;20084;-82
2022/07/15 09:39:22;;;;;;;2.97;1.98;;;;;;;24.81;35.09;93863.53;4984860;28;20395;-82
2022/07/15 09:41:48;;;;;;;1.90;1.58;;;;;;;24.79;32.98;93871.31;4980865;28;20030;-82
2022/07/15 09:44:15;;;;;;;3.03;1.70;;;;;;;24.93;33.42;93891.44;4980433;28;20030;-81
2022/07/15 09:46:44;;;;;;;3.63;2.10;;;;;;;24.84;33.69;93897.31;4988108;28;20030;-82
2022/07/15 09:49:15;;;;;;;3.17;1.90;;;;;;;24.67;34.00;93879.94;4988139;28;20061;-82
2022/07/15 09:51:55;;;;;;;1.40;1.30;;;;;;;24.37;33.46;93869.69;4990870;28;20054;-82
2022/07/15 09:54:26;;;;;;;4.70;2.10;;;;;;;24.52;33.20;93889.38;4988983;28;20061;-83
2022/07/15 09:56:52;;;;;;;4.63;1.67;;;;;;;24.74;34.46;93890.78;4982232;28;20030;-82
2022/07/15 09:59:18;;;;;;;6.40;3.22;;;;;;;24.62;34.32;93887.75;4986711;28;20053;-82
2022/07/15 10:01:47;;;;;;;2.35;1.58;;;;;;;24.63;33.59;93889.31;4991958;28;20041;-81
2022/07/15 10:04:15;;;;;;;1.83;1.35;;;;;;;24.61;32.32;93886.19;4992161;28;20049;-80
2022/07/15 10:06:42;;;;;;;7.85;1.67;;;;;;;24.60;32.21;93879.22;4991607;28;20037;-82
2022/07/15 10:09:09;;;;;;;3.72;2.28;;;;;;;24.79;32.97;93887.63;4987539;28;20042;-82
2022/07/15 10:11:38;;;;;;;3.15;1.73;;;;;;;24.88;33.29;93867.38;4989011;28;20043;-82
2022/07/15 10:14:28;;;;;;;2.28;1.73;;;;;;;25.19;32.45;93885.31;4987242;28;20037;-82
2022/07/15 10:17:15;;;;;;;1.67;1.40;;;;;;;25.04;32.88;93892.06;5001688;28;20044;-82
2022/07/15 10:19:50;;;;;;;2.42;1.73;;;;;;;25.22;32.33;93882.56;4995979;28;20425;-82
2022/07/15 10:22:34;;;;;;;2.35;1.30;;;;;;;25.34;31.46;93885.97;4991346;28;20059;-81
2022/07/15 10:25:26;;;;;;;3.07;1.60;;;;;;;25.49;30.46;93877.25;4990293;28;20030;-79
2022/07/15 10:28:04;;;;;;;2.00;1.50;;;;;;;25.40;31.70;93859.88;4987293;28;20722;-82
2022/07/15 10:30:30;;;;;;;1.60;1.40;;;;;;;25.50;30.44;93854.31;5003921;28;20674;-81
2022/07/15 10:33:07;;;;;;;1.50;1.40;;;;;;;25.47;31.05;93871.44;4989109;28;20108;-81
2022/07/15 10:35:42;;;;;;;2.03;1.40;;;;;;;25.65;29.80;93860.34;4987316;28;20087;-79
2022/07/15 10:38:27;;;;;;;1.77;1.50;;;;;;;25.83;30.67;93876.47;4983023;28;20463;-80
2022/07/15 10:41:02;;;;;;;1.95;1.45;;;;;;;25.88;31.68;93873.28;4979355;28;20061;-79
2022/07/15 10:43:37;;;;;;;1.60;1.50;;;;;;;25.22;30.84;93816.50;4981067;28;20034;-82
2022/07/15 10:46:16;;;;;;;1.83;1.63;;;;;;;25.21;32.16;93793.16;4980262;28;20466;-77
2022/07/15 10:48:58;;;;;;;1.75;1.38;;;;;;;25.82;31.81;93850.41;4981333;28;20486;-80
2022/07/15 10:51:35;;;;;;;4.60;1.67;;;;;;;26.03;31.41;93861.81;4979504;28;20570;-82
2022/07/15 10:54:02;;;;;;;3.78;1.98;;;;;;;26.05;30.42;93839.63;4986059;28;20022;-81
2022/07/15 10:56:41;;;;;;;2.47;1.35;;;;;;;26.20;28.89;93857.31;4984040;28;20097;-81
2022/07/15 10:59:26;;;;;;;1.92;1.70;;;;;;;26.19;29.76;93855.78;4989690;28;20037;-81
2022/07/15 11:01:58;;;;;;;2.67;1.90;;;;;;;25.79;33.47;93859.41;4984785;28;20038;-82
2022/07/15 11:04:26;;;;;;;1.60;1.50;;;;;;;25.91;32.58;93842.56;4984436;28;20411;-81
2022/07/15 11:07:07;;;;;;;3.28;1.70;;;;;;;26.11;31.66;93852.38;4986066;28;20018;-81
2022/07/15 11:10:20;;;;;;;2.03;1.83;;;;;;;26.20;32.93;93851.09;4983427;28;20072;-81
2022/07/15 11:12:48;;;;;;;2.05;1.33;;;;;;;26.32;30.25;93848.56;4978406;28;20042;-81
2022/07/15 11:15:24;;;;;;;4.47;1.58;;;;;;;26.22;29.55;93848.72;4984540;28;20033;-82
2022/07/15 11:17:53;;;;;;;2.40;1.50;;;;;;;25.86;30.73;93826.63;4985043;28;20377;-82
2022/07/15 11:20:23;;;;;;;2.17;1.50;;;;;;;26.17;31.73;93839.03;4991759;28;20037;-80
2022/07/15 11:22:51;;;;;;;3.22;1.83;;;;;;;26.28;31.45;93839.66;4985457;28;20034;-81
2022/07/15 11:25:17;;;;;;;2.15;1.67;;;;;;;26.33;33.99;93838.44;4987838;28;20034;-81
2022/07/15 11:28:14;;;;;;;2.45;1.77;;;;;;;26.34;29.56;93823.63;4985319;28;20395;-81
2022/07/15 11:30:53;;;;;;;4.38;1.55;;;;;;;26.45;32.53;93822.25;4985241;28;20038;-79
2022/07/15 11:33:21;;;;;;;1.85;1.40;;;;;;;26.42;32.96;93838.69;4989342;28;20062;-81
2022/07/15 11:35:55;;;;;;;2.17;1.70;;;;;;;26.22;31.55;93830.41;4985008;28;20030;-81
2022/07/15 11:38:32;;;;;;;2.10;1.45;;;;;;;26.27;33.82;93829.94;4986647;28;20095;-82
2022/07/15 11:46:47;;;;;;;1.88;1.67;;;;;;;26.65;27.35;93827.81;4989876;28;20505;-81